Time;durP1;ratioP1;P1;durP2;ratioP2;P2;SDS_P1;SDS_P2;PMS_P1;PMS_P2;Temp;Humidity;BMP_temperature;BMP_pressure;BME280_temperature;BME280_humidity;BME280_pressure;Samples;Min_cycle;Max_cycle;Signal;HPM_P1;HPM_P2
2023/04/30 00:01:32;;;;;;;;;33.67;31.00;;;;;12.68;60.96;101738.22;5100502;27;45489;-39
2023/04/30 00:03:58;;;;;;;;;40.33;30.33;;;;;12.68;61.54;101730.22;5100596;27;45282;-39
2023/04/30 00:06:23;;;;;;;;;35.33;26.33;;;;;12.71;61.63;101735.25;5100819;27;45338;-38
2023/04/30 00:08:48;;;;;;;;;36.33;27.67;;;;;12.76;60.96;101739.34;5099898;27;46004;-39
2023/04/30 00:11:13;;;;;;;;;35.67;28.00;;;;;12.80;60.95;101740.75;5100404;27;45340;-40
2023/04/30 00:13:40;;;;;;;;;40.33;32.33;;;;;12.81;61.44;101743.31;5100659;27;45199;-40
2023/04/30 00:16:06;;;;;;;;;37.67;32.33;;;;;12.84;61.21;101739.50;5100321;27;45193;-40
2023/04/30 00:18:31;;;;;;;;;43.33;28.33;;;;;12.84;60.90;101736.84;5099039;27;46415;-40
2023/04/30 00:20:56;;;;;;;;;33.00;30.33;;;;;12.88;61.14;101730.22;5100228;27;45371;-40
2023/04/30 00:23:22;;;;;;;;;36.33;28.67;;;;;12.88;60.98;101740.91;5100374;27;45364;-39
2023/04/30 00:25:47;;;;;;;;;56.33;37.67;;;;;12.86;60.78;101729.53;5100384;27;45511;-41
2023/04/30 00:28:12;;;;;;;;;52.33;39.00;;;;;12.80;61.26;101727.41;5099786;27;48555;-41
2023/04/30 00:30:38;;;;;;;;;37.33;31.33;;;;;12.77;60.98;101730.34;5100273;27;45324;-40
2023/04/30 00:33:03;;;;;;;;;41.33;36.00;;;;;12.71;61.30;101724.56;5100223;27;45385;-40
2023/04/30 00:35:28;;;;;;;;;43.67;32.33;;;;;12.69;61.30;101731.88;5100367;27;45353;-40
2023/04/30 00:37:54;;;;;;;;;41.00;31.00;;;;;12.66;62.11;101721.47;5099856;27;45378;-40
2023/04/30 00:40:19;;;;;;;;;48.00;38.67;;;;;12.62;61.57;101721.88;5099726;27;45425;-40
2023/04/30 00:42:45;;;;;;;;;45.67;35.33;;;;;12.59;62.23;101720.31;5100215;27;45379;-39
2023/04/30 00:45:10;;;;;;;;;43.00;33.00;;;;;12.58;61.98;101709.78;5099946;27;45543;-42
2023/04/30 00:47:36;;;;;;;;;36.00;31.33;;;;;12.57;62.06;101711.63;5099649;27;47127;-40
2023/04/30 00:50:01;;;;;;;;;37.67;33.67;;;;;12.54;62.04;101711.88;5099742;27;45455;-39
2023/04/30 00:52:27;;;;;;;;;39.33;31.33;;;;;12.51;62.03;101698.81;5100015;27;45378;-40
2023/04/30 00:54:53;;;;;;;;;41.00;32.67;;;;;12.51;62.49;101703.31;5100189;27;45240;-40
2023/04/30 00:57:19;;;;;;;;;33.67;28.33;;;;;12.51;62.13;101709.47;5099527;27;45373;-41
2023/04/30 00:59:45;;;;;;;;;40.67;30.67;;;;;12.48;62.73;101707.94;5099553;27;45358;-40
2023/04/30 01:02:11;;;;;;;;;39.67;32.00;;;;;12.45;62.65;101702.88;5099630;27;45208;-40
2023/04/30 01:04:37;;;;;;;;;40.33;33.33;;;;;12.46;62.71;101709.03;5099888;27;45447;-39
2023/04/30 01:07:04;;;;;;;;;36.67;33.33;;;;;12.44;62.04;101708.34;5099356;27;46180;-41
2023/04/30 01:09:30;;;;;;;;;33.33;28.00;;;;;12.41;62.24;101711.28;5098791;27;45294;-40
2023/04/30 01:12:03;;;;;;;;;36.00;27.33;;;;;12.37;62.51;101701.84;5080083;27;45351;-41
2023/04/30 01:15:01;;;;;;;;;40.67;33.67;;;;;12.37;62.45;101699.19;5099776;27;45431;-40
2023/04/30 01:17:26;;;;;;;;;37.33;31.67;;;;;12.35;62.89;101701.16;5099073;27;47051;-40
2023/04/30 01:19:52;;;;;;;;;33.67;25.67;;;;;12.33;62.60;101695.94;5099186;27;45320;-40
2023/04/30 01:22:37;;;;;;;;;28.67;24.33;;;;;12.30;62.24;101692.69;5099350;27;45415;-41
2023/04/30 01:25:33;;;;;;;;;32.67;28.33;;;;;12.31;62.58;101699.75;5099031;27;45534;-39
2023/04/30 01:28:09;;;;;;;;;32.67;29.00;;;;;12.29;63.27;101685.69;5099001;27;45857;-39
2023/04/30 01:30:35;;;;;;;;;31.33;29.33;;;;;12.29;63.04;101683.00;5099095;27;45226;-39
2023/04/30 01:33:02;;;;;;;;;26.00;25.67;;;;;12.28;62.73;101684.84;5099164;27;45393;-40
2023/04/30 01:35:43;;;;;;;;;37.33;26.00;;;;;12.28;62.88;101678.66;5099187;27;45276;-39
2023/04/30 01:38:23;;;;;;;;;25.33;17.00;;;;;12.28;62.56;101676.00;5098702;27;46536;-39
2023/04/30 01:40:56;;;;;;;;;31.00;27.67;;;;;12.28;63.13;101684.00;5098974;27;45401;-40
2023/04/30 01:43:33;;;;;;;;;32.33;27.67;;;;;12.26;62.90;101678.78;5098946;27;45310;-39
2023/04/30 01:46:26;;;;;;;;;28.33;21.67;;;;;12.22;62.62;101686.22;5099135;27;45234;-39
2023/04/30 01:49:03;;;;;;;;;28.33;22.00;;;;;12.21;62.73;101687.19;5098600;27;45702;-40
2023/04/30 01:51:42;;;;;;;;;21.67;18.67;;;;;12.19;62.68;101686.50;5098692;27;45181;-40
2023/04/30 01:54:29;;;;;;;;;31.00;22.33;;;;;12.18;63.28;101682.13;5098830;27;45294;-40
2023/04/30 01:57:04;;;;;;;;;20.67;17.00;;;;;12.19;63.25;101685.66;5098728;27;45168;-41
2023/04/30 01:59:33;;;;;;;;;26.00;23.33;;;;;12.20;62.74;101685.50;5098626;27;46932;-38
2023/04/30 02:01:59;;;;;;;;;26.33;22.00;;;;;12.19;63.03;101685.66;5098524;27;45485;-40
2023/04/30 02:04:24;;;;;;;;;20.33;19.33;;;;;12.18;63.55;101682.13;5098669;27;45285;-40
2023/04/30 02:06:50;;;;;;;;;25.67;21.67;;;;;12.21;62.97;101691.69;5098855;27;45312;-40
2023/04/30 02:09:15;;;;;;;;;28.33;19.33;;;;;12.20;62.79;101682.00;5098375;27;46134;-39
2023/04/30 02:11:40;;;;;;;;;29.00;19.67;;;;;12.20;62.71;101698.84;5098140;27;45379;-40
2023/04/30 02:14:06;;;;;;;;;18.00;17.67;;;;;12.21;63.21;101691.69;5098633;27;45247;-40
2023/04/30 02:16:31;;;;;;;;;30.67;21.67;;;;;12.17;62.17;101684.91;5098828;27;45440;-40
2023/04/30 02:18:56;;;;;;;;;23.33;19.67;;;;;12.19;62.68;101683.81;5098217;27;46291;-41
2023/04/30 02:21:22;;;;;;;;;26.00;22.00;;;;;12.16;62.56;101684.06;5097854;27;45408;-40
2023/04/30 02:23:47;;;;;;;;;25.67;20.33;;;;;12.17;62.28;101685.75;5098548;27;45636;-40
2023/04/30 02:26:12;;;;;;;;;20.67;19.00;;;;;12.17;62.68;101690.25;5098503;27;45379;-39
2023/04/30 02:28:38;;;;;;;;;31.00;22.67;;;;;12.14;62.86;101683.38;5098098;27;46019;-40
2023/04/30 02:31:03;;;;;;;;;19.33;18.00;;;;;12.15;62.42;101689.56;5098204;27;45402;-39
2023/04/30 02:33:28;;;;;;;;;24.00;20.67;;;;;12.14;62.94;101682.53;5098175;27;45627;-40
2023/04/30 02:35:54;;;;;;;;;20.00;17.33;;;;;12.16;62.52;101688.56;5098547;27;45271;-39
2023/04/30 02:38:20;;;;;;;;;24.00;19.33;;;;;12.16;62.98;101704.56;5097938;27;45315;-40
2023/04/30 02:40:45;;;;;;;;;19.33;16.67;;;;;12.16;62.60;101689.41;5097839;27;45286;-41
2023/04/30 02:43:10;;;;;;;;;24.67;18.67;;;;;12.14;62.92;101695.88;5098227;27;45165;-38
2023/04/30 02:45:36;;;;;;;;;20.00;17.00;;;;;12.10;62.21;101689.13;5098135;27;45353;-40
2023/04/30 02:48:01;;;;;;;;;27.00;22.67;;;;;12.12;62.67;101696.00;5097890;27;46223;-40
2023/04/30 02:50:26;;;;;;;;;18.00;15.67;;;;;12.10;62.45;101695.28;5097741;27;45311;-41
2023/04/30 02:52:52;;;;;;;;;24.33;20.67;;;;;12.07;62.60;101689.38;5097902;27;45322;-39
2023/04/30 02:55:17;;;;;;;;;21.67;19.00;;;;;12.08;62.88;101699.91;5097954;27;45351;-41
2023/04/30 02:57:42;;;;;;;;;28.33;19.00;;;;;12.06;62.63;101695.69;5097890;27;46088;-39
2023/04/30 03:00:08;;;;;;;;;21.33;20.67;;;;;12.03;62.74;101687.97;5097879;27;45369;-42
2023/04/30 03:02:34;;;;;;;;;22.67;19.00;;;;;12.06;63.09;101688.53;5097952;27;45327;-40
2023/04/30 03:04:59;;;;;;;;;24.33;17.33;;;;;12.06;62.99;101685.88;5097731;27;45470;-40
2023/04/30 03:07:24;;;;;;;;;23.00;19.67;;;;;12.05;63.10;101681.53;5097936;27;47005;-39
2023/04/30 03:09:50;;;;;;;;;21.67;18.33;;;;;12.06;62.82;101682.38;5097115;27;45417;-39
2023/04/30 03:12:15;;;;;;;;;26.67;19.67;;;;;12.01;62.53;101669.44;5096775;27;45355;-39
2023/04/30 03:14:40;;;;;;;;;23.67;18.00;;;;;12.04;62.50;101689.63;5097749;27;45338;-40
2023/04/30 03:17:06;;;;;;;;;21.67;17.67;;;;;12.03;62.87;101687.97;5097289;27;46949;-40
2023/04/30 03:19:31;;;;;;;;;25.33;19.00;;;;;12.03;62.66;101682.63;5097576;27;45428;-39
2023/04/30 03:21:57;;;;;;;;;27.00;21.33;;;;;11.99;63.06;101676.72;5097500;27;45339;-39
2023/04/30 03:24:23;;;;;;;;;26.33;21.67;;;;;11.97;62.93;101676.84;5097684;27;45542;-41
2023/04/30 03:26:49;;;;;;;;;28.67;27.00;;;;;11.99;63.15;101679.38;5097009;27;46264;-40
2023/04/30 03:29:15;;;;;;;;;31.67;23.67;;;;;11.97;63.40;101679.50;5097049;27;45370;-39
2023/04/30 03:31:40;;;;;;;;;35.00;28.33;;;;;11.95;63.10;101684.13;5097388;27;45404;-42
2023/04/30 03:34:06;;;;;;;;;39.67;26.33;;;;;11.93;63.53;101677.25;5099068;27;45259;-41
2023/04/30 03:36:32;;;;;;;;;109.25;74.25;;;;;11.90;63.78;101674.84;5100619;27;46152;-39
2023/04/30 03:38:57;;;;;;;;;73.75;54.00;;;;;11.88;63.46;101680.31;5100787;27;45356;-40
2023/04/30 03:41:23;;;;;;;;;45.25;35.50;;;;;11.87;64.07;101683.09;5100539;27;45226;-39
2023/04/30 03:43:48;;;;;;;;;36.00;30.33;;;;;11.81;63.52;101673.78;5101202;27;45365;-38
2023/04/30 03:46:13;;;;;;;;;27.33;21.00;;;;;11.82;63.74;101675.47;5100708;27;46064;-39
2023/04/30 03:48:39;;;;;;;;;27.00;23.00;;;;;11.73;64.18;101662.94;5100554;27;45384;-40
2023/04/30 03:51:04;;;;;;;;;30.67;23.00;;;;;11.77;64.13;101671.50;5100608;27;45321;-40
2023/04/30 03:53:29;;;;;;;;;30.67;20.67;;;;;11.76;64.61;101676.00;5101049;27;45410;-41
2023/04/30 03:55:56;;;;;;;;;30.67;26.00;;;;;11.72;64.61;101671.91;5100494;27;47092;-41
2023/04/30 03:58:22;;;;;;;;;23.00;20.33;;;;;11.71;64.85;101672.88;5100699;27;45419;-39
2023/04/30 04:00:47;;;;;;;;;41.00;25.33;;;;;11.67;64.40;101669.66;5100641;27;45327;-41
2023/04/30 04:03:14;;;;;;;;;30.33;24.33;;;;;11.69;65.06;101673.00;5100004;27;45564;-44
2023/04/30 04:05:40;;;;;;;;;33.67;29.33;;;;;11.66;65.34;101670.59;5100533;27;45444;-41
2023/04/30 04:08:05;;;;;;;;;30.33;26.00;;;;;11.65;65.48;101671.56;5100451;27;45420;-41
2023/04/30 04:10:31;;;;;;;;;27.67;25.67;;;;;11.65;65.66;101665.41;5100632;27;45203;-41
2023/04/30 04:12:56;;;;;;;;;37.67;28.00;;;;;11.63;65.72;101667.34;5100541;27;45286;-41
2023/04/30 04:15:22;;;;;;;;;37.33;26.33;;;;;11.64;65.57;101671.72;5100119;27;46555;-41
2023/04/30 04:17:47;;;;;;;;;29.33;24.33;;;;;11.63;65.53;101673.53;5100267;27;45420;-41
2023/04/30 04:20:13;;;;;;;;;34.00;25.33;;;;;11.61;65.69;101672.81;5100793;27;45432;-41
2023/04/30 04:22:38;;;;;;;;;33.33;25.33;;;;;11.60;66.28;101670.28;5100597;27;45431;-41
2023/04/30 04:25:05;;;;;;;;;25.00;22.00;;;;;11.57;65.44;101658.06;5100201;27;45397;-40
2023/04/30 04:27:31;;;;;;;;;44.00;27.25;;;;;11.60;66.13;101670.28;5099880;27;45393;-40
2023/04/30 04:29:56;;;;;;;;;30.00;26.33;;;;;11.59;66.57;101672.13;5100174;27;45320;-40
2023/04/30 04:32:22;;;;;;;;;23.00;22.33;;;;;11.58;66.44;101675.72;5100274;27;45397;-40
2023/04/30 04:34:48;;;;;;;;;36.75;26.50;;;;;11.59;66.09;101674.78;5099684;27;46030;-41
2023/04/30 04:37:14;;;;;;;;;27.00;24.67;;;;;11.57;66.45;101671.38;5099686;27;45429;-41
2023/04/30 04:39:39;;;;;;;;;24.50;17.50;;;;;11.59;66.70;101674.78;5099937;27;45227;-41
2023/04/30 04:42:05;;;;;;;;;35.33;27.33;;;;;11.59;66.13;101676.59;5100068;27;45321;-41
2023/04/30 04:44:31;;;;;;;;;35.67;34.00;;;;;11.53;66.96;101664.63;5099228;27;46136;-41
2023/04/30 04:46:56;;;;;;;;;30.67;27.00;;;;;11.57;66.81;101671.38;5099725;27;45448;-41
2023/04/30 04:49:22;;;;;;;;;32.67;24.00;;;;;11.62;66.41;101678.97;5100107;27;45205;-41
2023/04/30 04:51:47;;;;;;;;;34.75;30.75;;;;;11.63;66.78;101680.66;5099983;27;45477;-41
2023/04/30 04:54:12;;;;;;;;;24.00;24.00;;;;;11.63;66.52;101686.00;5099647;27;45992;-40
2023/04/30 04:56:38;;;;;;;;;34.00;30.00;;;;;11.65;65.90;101684.06;5099710;27;45300;-40
2023/04/30 04:59:03;;;;;;;;;34.00;25.67;;;;;11.64;66.22;101683.22;5099669;27;45397;-40
2023/04/30 05:01:28;;;;;;;;;39.50;28.75;;;;;11.66;66.16;101688.41;5099978;27;45401;-40
2023/04/30 05:03:54;;;;;;;;;33.67;26.33;;;;;11.66;66.75;101685.75;5099479;27;46161;-40
2023/04/30 05:06:19;;;;;;;;;38.50;32.75;;;;;11.65;66.82;101678.72;5099450;27;45544;-40
2023/04/30 05:08:44;;;;;;;;;30.00;26.00;;;;;11.69;66.39;101685.50;5099642;27;45455;-40
2023/04/30 05:11:11;;;;;;;;;43.50;32.25;;;;;11.70;66.83;101685.34;5099448;27;45316;-40
2023/04/30 05:13:36;;;;;;;;;33.00;29.33;;;;;11.74;66.91;101688.59;5099327;27;45331;-41
2023/04/30 05:16:02;;;;;;;;;47.33;31.00;;;;;11.77;66.27;101695.50;5099237;27;45333;-40
2023/04/30 05:18:27;;;;;;;;;41.33;32.00;;;;;11.80;66.27;101696.09;5099372;27;45362;-40
2023/04/30 05:20:52;;;;;;;;;27.67;26.33;;;;;11.84;65.99;101702.00;5099852;27;45365;-41
2023/04/30 05:23:18;;;;;;;;;38.00;29.00;;;;;11.84;65.96;101697.56;5099181;27;46115;-41
2023/04/30 05:25:44;;;;;;;;;40.00;30.00;;;;;11.89;65.95;101710.50;5099250;27;45401;-39
2023/04/30 05:28:10;;;;;;;;;32.00;27.67;;;;;11.91;66.34;101705.84;5099012;27;45512;-39
2023/04/30 05:30:35;;;;;;;;;44.50;33.25;;;;;11.94;65.93;101706.44;5099427;27;45472;-41
2023/04/30 05:33:00;;;;;;;;;38.33;30.00;;;;;11.97;65.68;101711.50;5098621;27;45236;-41
2023/04/30 05:35:26;;;;;;;;;30.00;28.67;;;;;12.01;66.10;101706.75;5098852;27;45444;-41
2023/04/30 05:37:51;;;;;;;;;40.67;32.67;;;;;12.02;65.67;101697.78;5099138;27;45683;-41
2023/04/30 05:40:17;;;;;;;;;32.00;31.00;;;;;12.12;65.91;101714.66;5099229;27;45343;-40
2023/04/30 05:42:42;;;;;;;;;38.67;31.67;;;;;12.17;65.49;101716.94;5098627;27;46861;-41
2023/04/30 05:45:13;;;;;;;;;38.33;35.00;;;;;12.21;65.52;101719.19;5098883;27;45565;-41
2023/04/30 05:47:39;;;;;;;;;43.33;30.33;;;;;12.27;65.27;101719.66;5098883;27;45329;-41
2023/04/30 05:50:05;;;;;;;;;36.33;27.00;;;;;12.30;65.51;101709.53;5099329;27;45455;-42
2023/04/30 05:52:31;;;;;;;;;40.00;30.67;;;;;12.30;64.72;101703.38;5098271;27;46244;-42
2023/04/30 05:54:57;;;;;;;;;31.33;27.67;;;;;12.37;65.09;101713.38;5098414;27;45403;-39
2023/04/30 05:57:22;;;;;;;;;35.33;30.67;;;;;12.42;65.11;101713.81;5097900;27;45461;-39
2023/04/30 05:59:47;;;;;;;;;37.00;30.67;;;;;12.48;64.51;101709.78;5099036;27;45217;-40
2023/04/30 06:02:13;;;;;;;;;36.67;30.00;;;;;12.54;64.86;101717.22;5097987;27;45430;-40
2023/04/30 06:04:38;;;;;;;;;35.67;31.33;;;;;12.42;64.44;101678.28;5098496;27;45377;-40
2023/04/30 06:07:04;;;;;;;;;39.67;32.33;;;;;12.63;64.88;101708.38;5098410;27;45354;-40
2023/04/30 06:09:29;;;;;;;;;50.33;35.67;;;;;12.69;64.61;101707.88;5099138;27;45534;-40
2023/04/30 06:11:54;;;;;;;;;39.67;34.33;;;;;12.76;63.88;101709.97;5098379;27;46132;-40
2023/04/30 06:14:21;;;;;;;;;33.33;28.67;;;;;12.64;63.88;101688.75;5098596;27;45430;-40
2023/04/30 06:16:48;;;;;;;;;39.67;32.67;;;;;12.82;63.97;101717.44;5098734;27;45414;-39
2023/04/30 06:19:13;;;;;;;;;40.33;33.00;;;;;12.84;63.12;101710.97;5098320;27;45302;-40
2023/04/30 06:21:39;;;;;;;;;41.00;31.33;;;;;12.89;63.18;101714.09;5098355;27;46870;-41
2023/04/30 06:24:04;;;;;;;;;40.67;33.00;;;;;12.94;63.32;101722.53;5098422;27;45436;-40
2023/04/30 06:26:30;;;;;;;;;43.00;36.33;;;;;12.96;63.10;101706.34;5098640;27;45249;-42
2023/04/30 06:28:55;;;;;;;;;39.00;34.33;;;;;13.12;63.31;101711.16;5098219;27;45393;-40
2023/04/30 06:31:21;;;;;;;;;37.67;30.67;;;;;13.21;62.78;101716.50;5098106;27;45449;-42
2023/04/30 06:33:46;;;;;;;;;38.00;31.67;;;;;13.29;62.41;101717.66;5097207;27;45381;-41
2023/04/30 06:36:12;;;;;;;;;37.67;31.67;;;;;13.36;62.65;101710.78;5098178;27;45293;-41
2023/04/30 06:38:37;;;;;;;;;43.00;30.67;;;;;13.45;62.33;101718.78;5098387;27;45456;-42
2023/04/30 06:41:02;;;;;;;;;39.00;31.33;;;;;13.55;62.23;101710.75;5097908;27;46355;-41
2023/04/30 06:43:28;;;;;;;;;42.33;32.00;;;;;13.67;61.95;101719.47;5097785;27;45481;-40
2023/04/30 06:45:53;;;;;;;;;35.67;31.33;;;;;13.77;61.62;101711.41;5097974;27;45444;-40
2023/04/30 06:48:19;;;;;;;;;40.00;28.00;;;;;13.85;61.50;101706.19;5098200;27;45236;-40
2023/04/30 06:50:44;;;;;;;;;39.00;31.33;;;;;13.99;61.40;101711.09;5097640;27;46145;-40
2023/04/30 06:53:11;;;;;;;;;43.00;34.33;;;;;14.05;61.02;101707.84;5097954;27;45353;-41
2023/04/30 06:55:36;;;;;;;;;42.00;31.67;;;;;14.12;60.60;101711.63;5097811;27;45416;-40
2023/04/30 06:58:01;;;;;;;;;47.33;35.33;;;;;14.25;60.47;101708.63;5097823;27;45491;-39
2023/04/30 07:00:27;;;;;;;;;41.00;32.33;;;;;14.43;60.08;101711.34;5097528;27;46268;-41
2023/04/30 07:02:52;;;;;;;;;38.33;33.00;;;;;14.64;59.34;101709.28;5097541;27;45414;-40
2023/04/30 07:05:18;;;;;;;;;82.00;55.50;;;;;14.85;59.11;101700.16;5097779;27;45261;-40
2023/04/30 07:07:43;;;;;;;;;44.67;38.67;;;;;15.06;58.54;101697.19;5097718;27;45354;-40
2023/04/30 07:10:09;;;;;;;;;36.33;29.33;;;;;15.29;58.07;101694.88;5079252;27;46072;-40
2023/04/30 07:12:34;;;;;;;;;49.67;35.33;;;;;15.50;57.67;101694.53;5097652;27;45413;-41
2023/04/30 07:15:00;;;;;;;;;34.00;29.67;;;;;15.64;56.91;101696.69;5097532;27;45289;-40
2023/04/30 07:17:25;;;;;;;;;34.67;30.67;;;;;15.81;56.41;101695.81;5097708;27;45272;-40
2023/04/30 07:19:51;;;;;;;;;38.33;34.33;;;;;16.03;56.39;101704.34;5097380;27;45377;-40
2023/04/30 07:22:16;;;;;;;;;40.67;32.67;;;;;16.20;55.75;101709.63;5097590;27;46138;-42
2023/04/30 07:24:41;;;;;;;;;36.67;35.00;;;;;16.39;55.18;101702.31;5097377;27;45424;-41
2023/04/30 07:27:07;;;;;;;;;37.00;34.00;;;;;16.58;54.76;101711.97;5097504;27;45398;-42
2023/04/30 07:29:32;;;;;;;;;35.00;29.33;;;;;16.74;54.90;101722.81;5096540;27;45263;-41
2023/04/30 07:31:58;;;;;;;;;40.67;30.67;;;;;16.99;54.48;101715.66;5097258;27;45271;-40
2023/04/30 07:34:24;;;;;;;;;43.67;32.00;;;;;17.21;53.78;101722.25;5097550;27;45395;-41
2023/04/30 07:36:49;;;;;;;;;28.33;26.67;;;;;17.46;53.04;101718.56;5097323;27;45288;-41
2023/04/30 07:39:14;;;;;;;;;50.33;31.67;;;;;17.76;52.17;101718.06;5097062;27;46219;-44
2023/04/30 07:41:40;;;;;;;;;46.67;35.67;;;;;18.08;52.07;101717.19;5097082;27;45447;-41
2023/04/30 07:44:05;;;;;;;;;49.00;33.00;;;;;18.41;51.18;101715.19;5096671;27;45511;-39
2023/04/30 07:46:31;;;;;;;;;50.00;35.00;;;;;18.71;50.82;101708.22;5097201;27;45385;-41
2023/04/30 07:48:58;;;;;;;;;46.00;34.33;;;;;19.15;48.65;101708.41;5096647;27;46189;-41
2023/04/30 07:51:23;;;;;;;;;38.33;33.00;;;;;19.88;49.98;101700.72;5096994;27;45343;-41
2023/04/30 07:53:48;;;;;;;;;42.00;33.67;;;;;20.93;45.66;101708.56;5097163;27;45472;-38
2023/04/30 07:56:14;;;;;;;;;39.33;32.67;;;;;22.01;43.79;101703.94;5078749;27;45479;-40
2023/04/30 07:58:39;;;;;;;;;35.00;29.00;;;;;23.08;45.19;101701.50;5096612;27;45849;-40
2023/04/30 08:01:05;;;;;;;;;36.67;32.00;;;;;23.78;40.05;101706.56;5096848;27;45518;-40
2023/04/30 08:03:30;;;;;;;;;41.33;32.33;;;;;24.52;38.76;101700.75;5096368;27;45341;-40
2023/04/30 08:05:55;;;;;;;;;43.00;34.33;;;;;25.11;38.68;101704.22;5096761;27;45404;-40
2023/04/30 08:08:21;;;;;;;;;39.00;33.33;;;;;25.67;35.84;101692.47;5096619;27;45651;-41
2023/04/30 08:10:46;;;;;;;;;35.00;30.25;;;;;26.56;34.61;101698.47;5096761;27;45371;-45
2023/04/30 08:13:11;;;;;;;;;33.00;27.50;;;;;27.52;33.76;101692.00;5096670;27;45514;-40
2023/04/30 08:15:38;;;;;;;;;34.50;29.50;;;;;28.51;31.89;101683.84;5097141;27;45381;-41
2023/04/30 08:18:04;;;;;;;;;38.50;33.00;;;;;29.51;30.41;101690.56;5096398;27;45373;-40
2023/04/30 08:20:31;;;;;;;;;33.25;28.50;;;;;30.40;30.58;101678.69;5098497;27;45416;-41
2023/04/30 08:22:56;;;;;;;;;33.00;28.50;;;;;30.92;28.53;101667.16;5100534;27;45316;-40
2023/04/30 08:25:22;;;;;;;;;32.25;27.25;;;;;31.51;28.48;101680.88;5100317;27;45370;-39
2023/04/30 08:27:47;;;;;;;;;30.50;28.75;;;;;32.03;28.20;101677.38;5099951;27;46514;-41
2023/04/30 08:30:12;;;;;;;;;21.75;21.75;;;;;32.57;27.99;101683.66;5100057;27;45411;-40
2023/04/30 08:32:38;;;;;;;;;30.75;25.25;;;;;33.00;26.26;101674.13;5100338;27;45600;-41
2023/04/30 08:35:04;;;;;;;;;30.25;24.75;;;;;33.34;27.99;101668.88;5100610;27;45495;-40
2023/04/30 08:37:30;;;;;;;;;37.40;30.40;;;;;33.49;25.63;101670.81;5115839;27;47939;-42
2023/04/30 08:39:55;;;;;;;;;26.25;22.50;;;;;33.82;24.58;101666.59;5100115;27;45251;-41
2023/04/30 08:42:29;;;;;;;;;33.50;25.50;;;;;34.38;28.52;101673.84;5100073;27;45373;-40
2023/04/30 08:44:55;;;;;;;;;29.00;28.00;;;;;34.29;24.51;101676.38;5099840;27;45529;-40
2023/04/30 08:47:21;;;;;;;;;30.25;27.00;;;;;34.92;23.81;101662.75;5099822;27;46115;-40
2023/04/30 08:49:47;;;;;;;;;28.00;26.00;;;;;35.56;22.16;101674.66;5099489;27;45252;-41
2023/04/30 08:52:13;;;;;;;;;30.75;28.25;;;;;35.88;22.04;101660.22;5098653;27;45362;-41
2023/04/30 08:54:38;;;;;;;;;29.25;28.50;;;;;36.33;22.24;101671.03;5100530;27;45237;-40
2023/04/30 08:57:04;;;;;;;;;26.75;24.50;;;;;36.59;21.44;101665.97;5099333;27;47132;-39
2023/04/30 08:59:30;;;;;;;;;28.40;23.80;;;;;36.79;22.72;101665.69;5099280;27;45484;-39
2023/04/30 09:01:55;;;;;;;;;31.50;26.25;;;;;37.05;21.36;101673.59;5099236;27;45418;-39
2023/04/30 09:04:21;;;;;;;;;26.25;24.25;;;;;37.37;22.20;101661.66;5098636;27;45527;-39
2023/04/30 09:06:46;;;;;;;;;30.25;27.50;;;;;37.53;21.01;101667.78;5099296;27;45445;-40
2023/04/30 09:09:13;;;;;;;;;29.75;24.00;;;;;37.45;21.38;101660.97;5099109;27;45385;-39
2023/04/30 09:11:39;;;;;;;;;22.00;22.00;;;;;37.50;20.45;101666.44;5099485;27;45345;-39
2023/04/30 09:14:04;;;;;;;;;27.00;22.00;;;;;37.81;20.48;101655.56;5099216;27;45239;-47
2023/04/30 09:16:45;;;;;;;;;19.00;17.25;;;;;38.25;20.86;101658.81;5098775;27;46210;-40
2023/04/30 09:19:40;;;;;;;;;25.20;23.00;;;;;38.63;22.55;101662.16;5098716;27;45332;-38
2023/04/30 09:22:22;;;;;;;;;26.20;22.60;;;;;38.61;19.30;101659.69;4996089;28;45426;-40
2023/04/30 09:24:49;;;;;;;;;23.40;21.60;;;;;39.11;18.44;101651.25;4996410;28;45333;-40
2023/04/30 09:27:17;;;;;;;;;17.60;15.40;;;;;39.49;18.49;101650.00;4995788;28;46411;-40
2023/04/30 09:29:42;;;;;;;;;17.80;17.80;;;;;40.20;17.94;101653.53;4995805;28;45451;-40
2023/04/30 09:32:08;;;;;;;;;24.00;21.75;;;;;40.94;16.55;101655.34;4995242;28;45884;-41
2023/04/30 09:34:37;;;;;;;;;28.00;23.60;;;;;41.43;17.32;101658.75;4996265;28;45388;-40
2023/04/30 09:37:03;;;;;;;;;21.80;20.20;;;;;41.51;16.84;101643.91;4995882;28;45922;-40
2023/04/30 09:39:29;;;;;;;;;21.80;17.60;;;;;41.33;17.55;101645.91;4995483;28;45469;-39
2023/04/30 09:42:08;;;;;;;;;24.60;22.60;;;;;41.46;19.16;101651.66;4995907;28;45333;-39
2023/04/30 09:44:37;;;;;;;;;21.80;19.80;;;;;41.91;16.91;101659.50;4995566;28;45480;-40
2023/04/30 09:47:02;;;;;;;;;26.60;21.80;;;;;41.98;16.53;101643.03;4995869;28;45757;-40
2023/04/30 09:49:28;;;;;;;;;23.75;21.75;;;;;42.51;15.90;101641.50;4995922;28;45214;-40
2023/04/30 09:51:55;;;;;;;;;22.25;18.25;;;;;43.05;15.64;101602.31;4995888;28;45667;-41
2023/04/30 09:54:26;;;;;;;;;23.20;17.80;;;;;43.73;16.10;101639.03;4996016;28;45561;-41
2023/04/30 09:56:53;;;;;;;;;17.80;17.80;;;;;44.01;15.03;101641.16;4995330;28;46207;-40
2023/04/30 09:59:21;;;;;;;;;23.20;16.60;;;;;43.90;17.48;101642.78;5047708;28;45295;-42
2023/04/30 10:01:50;;;;;;;;;15.80;15.20;;;;;43.56;16.90;101636.47;5057760;28;45418;-41
2023/04/30 10:04:16;;;;;;;;;21.00;19.20;;;;;41.10;15.99;101642.56;5057722;28;45339;-40
2023/04/30 10:06:42;;;;;;;;;15.20;13.20;;;;;41.31;16.96;101631.47;5057531;28;45989;-40
2023/04/30 10:09:08;;;;;;;;;15.25;15.25;;;;;39.96;17.95;101637.25;5057379;28;45423;-40
2023/04/30 10:11:37;;;;;;;;;12.20;11.60;;;;;39.87;19.21;101628.88;5057468;28;45366;-41
2023/04/30 10:14:07;;;;;;;;;14.20;11.80;;;;;39.30;18.44;101631.56;5057601;28;45427;-41
2023/04/30 10:16:51;;;;;;;;;12.20;11.00;;;;;38.92;18.59;101631.16;5057134;28;46228;-39
2023/04/30 10:19:23;;;;;;;;;16.20;13.00;;;;;37.39;20.62;101628.88;5057311;28;45299;-41
2023/04/30 10:21:49;;;;;;;;;13.80;13.00;;;;;38.08;18.87;101631.69;5057492;28;45369;-41
2023/04/30 10:24:20;;;;;;;;;15.80;14.80;;;;;39.15;17.74;101620.84;5057531;28;45474;-40
2023/04/30 10:26:46;;;;;;;;;14.60;11.60;;;;;39.59;17.83;101611.53;5057182;28;46111;-41
2023/04/30 10:29:13;;;;;;;;;6.20;5.00;;;;;40.19;18.14;101612.06;5057116;28;45437;-41
2023/04/30 10:31:42;;;;;;;;;12.20;10.40;;;;;40.75;18.54;101611.09;5057314;28;45315;-42
2023/04/30 10:34:13;;;;;;;;;11.20;10.00;;;;;40.94;17.38;101609.91;5057384;28;45359;-41
2023/04/30 10:36:43;;;;;;;;;12.40;11.40;;;;;41.53;17.03;101601.69;5056986;28;46249;-39
2023/04/30 10:39:11;;;;;;;;;15.40;13.60;;;;;42.32;15.96;101606.47;5057038;28;45437;-39
2023/04/30 10:41:37;;;;;;;;;12.00;8.20;;;;;40.06;16.76;101603.47;5056998;28;45340;-39
2023/04/30 10:44:04;;;;;;;;;12.25;10.75;;;;;38.89;17.60;101592.84;5065654;27;45330;-39
2023/04/30 10:46:30;;;;;;;;;12.80;9.60;;;;;38.12;18.15;101597.41;5097551;27;45423;-40
2023/04/30 10:48:55;;;;;;;;;13.75;12.25;;;;;36.97;18.89;101597.47;5097453;27;45377;-41
2023/04/30 10:51:21;;;;;;;;;15.00;10.25;;;;;36.77;19.41;101593.06;5097421;27;45374;-41
2023/04/30 10:53:52;;;;;;;;;11.00;10.00;;;;;37.63;18.68;101600.94;5097889;27;45440;-40
2023/04/30 10:56:32;;;;;;;;;10.80;10.20;;;;;37.46;18.63;101601.56;5079236;27;46541;-41
2023/04/30 10:59:04;;;;;;;;;11.20;10.60;;;;;36.72;18.52;101587.59;5097578;27;45318;-41
2023/04/30 11:01:32;;;;;;;;;8.40;7.80;;;;;36.12;19.62;101590.97;5097647;27;45418;-41
2023/04/30 11:04:10;;;;;;;;;13.00;10.00;;;;;34.34;21.39;101590.72;5097629;27;45344;-40
2023/04/30 11:07:09;;;;;;;;;10.20;10.00;;;;;33.32;21.89;101595.78;5097195;27;47014;-41
2023/04/30 11:09:41;;;;;;;;;9.80;9.00;;;;;32.54;22.64;101594.97;5097365;27;45371;-42